createdAt,value
2023-08-07T00:02:02.050Z,0.70
2023-08-07T00:04:29.471Z,0.90
2023-08-07T00:06:56.351Z,0.70
2023-08-07T00:09:23.203Z,0.70
2023-08-07T00:11:50.058Z,0.70
2023-08-07T00:14:17.257Z,0.70
2023-08-07T00:16:44.124Z,0.77
2023-08-07T00:19:11.889Z,0.80
2023-08-07T00:21:40.123Z,0.70
2023-08-07T00:24:07.060Z,0.80
2023-08-07T00:26:34.016Z,0.60
2023-08-07T00:29:00.944Z,0.63
2023-08-07T00:31:32.126Z,0.77
2023-08-07T00:34:00.672Z,0.77
2023-08-07T00:36:29.974Z,0.60
2023-08-07T00:38:57.019Z,0.90
2023-08-07T00:41:24.038Z,0.60
2023-08-07T00:43:51.023Z,0.70
2023-08-07T00:46:18.246Z,1.00
2023-08-07T00:48:45.535Z,0.70
2023-08-07T00:51:13.115Z,0.82
2023-08-07T00:53:41.624Z,0.70
2023-08-07T00:56:08.909Z,0.80
2023-08-07T00:58:36.497Z,1.02
2023-08-07T01:01:03.660Z,0.70
2023-08-07T01:03:30.640Z,0.75
2023-08-07T01:05:57.709Z,0.60
2023-08-07T01:08:26.032Z,0.68
2023-08-07T01:11:01.350Z,0.80
2023-08-07T01:13:38.565Z,0.70
2023-08-07T01:16:13.866Z,0.70
2023-08-07T01:18:42.939Z,0.73
2023-08-07T01:21:21.546Z,0.70
2023-08-07T01:23:49.505Z,0.80
2023-08-07T01:26:18.240Z,0.70
2023-08-07T01:28:56.958Z,0.80
2023-08-07T01:31:25.982Z,0.80
2023-08-07T01:34:00.172Z,0.60
2023-08-07T01:36:29.888Z,0.82
2023-08-07T01:39:00.645Z,0.60
2023-08-07T01:41:28.229Z,0.70
2023-08-07T01:43:56.040Z,0.68
2023-08-07T01:46:22.889Z,0.80
2023-08-07T01:48:49.687Z,1.00
2023-08-07T01:51:16.562Z,0.80
2023-08-07T01:53:43.376Z,0.80
2023-08-07T01:56:10.204Z,0.80
2023-08-07T01:58:36.999Z,1.17
2023-08-07T02:01:03.880Z,0.70
2023-08-07T02:03:30.847Z,0.50
2023-08-07T02:05:57.821Z,0.60
2023-08-07T02:08:24.639Z,0.82
2023-08-07T02:10:51.506Z,0.55
2023-08-07T02:13:18.324Z,0.60
2023-08-07T02:15:45.151Z,0.60
2023-08-07T02:18:11.956Z,0.60
2023-08-07T02:20:38.802Z,0.60
2023-08-07T02:23:05.766Z,0.52
2023-08-07T02:25:32.533Z,0.70
2023-08-07T02:27:59.375Z,0.60
2023-08-07T02:30:26.354Z,0.60
2023-08-07T02:32:53.227Z,0.63
2023-08-07T02:35:20.051Z,0.68
2023-08-07T02:37:46.853Z,0.80
2023-08-07T02:40:16.413Z,0.75
2023-08-07T02:42:43.756Z,0.70
2023-08-07T02:45:11.030Z,0.70
2023-08-07T02:47:38.238Z,0.73
2023-08-07T02:50:05.509Z,0.60
2023-08-07T02:52:32.342Z,0.60
2023-08-07T02:54:59.660Z,0.68
2023-08-07T02:57:26.881Z,0.60
2023-08-07T02:59:53.711Z,0.80
2023-08-07T03:02:20.603Z,0.73
2023-08-07T03:04:47.538Z,0.50
2023-08-07T03:07:14.464Z,0.60
2023-08-07T03:09:41.236Z,0.70
2023-08-07T03:12:08.460Z,0.52
2023-08-07T03:14:35.269Z,0.50
2023-08-07T03:17:02.217Z,0.60
2023-08-07T03:19:29.066Z,0.60
2023-08-07T03:21:55.961Z,0.70
2023-08-07T03:24:22.885Z,0.57
2023-08-07T03:26:50.311Z,0.45
2023-08-07T03:29:17.210Z,0.70
2023-08-07T03:31:44.037Z,0.50
2023-08-07T03:34:10.865Z,0.60
2023-08-07T03:36:37.656Z,0.50
2023-08-07T03:39:04.396Z,0.40
2023-08-07T03:41:31.231Z,0.40
2023-08-07T03:43:58.240Z,0.60
2023-08-07T03:46:25.129Z,0.50
2023-08-07T03:48:52.150Z,0.50
2023-08-07T03:51:19.420Z,0.45
2023-08-07T03:53:46.176Z,0.52
2023-08-07T03:56:13.016Z,0.43
2023-08-07T03:58:39.976Z,0.60
2023-08-07T04:01:06.903Z,0.52
2023-08-07T04:03:33.940Z,0.50
2023-08-07T04:06:03.012Z,0.68
2023-08-07T04:08:29.980Z,0.60
2023-08-07T04:11:06.820Z,0.70
2023-08-07T04:13:33.755Z,0.73
2023-08-07T04:16:02.799Z,0.68
2023-08-07T04:18:31.150Z,0.65
2023-08-07T04:20:58.681Z,0.95
2023-08-07T04:23:25.789Z,0.50
2023-08-07T04:25:54.449Z,0.90
2023-08-07T04:28:21.602Z,0.60
2023-08-07T04:30:52.074Z,0.73
2023-08-07T04:33:19.480Z,0.77
2023-08-07T04:35:47.691Z,0.77
2023-08-07T04:38:18.413Z,0.88
2023-08-07T04:40:47.067Z,0.80
2023-08-07T04:43:14.931Z,0.80
2023-08-07T04:45:42.672Z,0.70
2023-08-07T04:48:09.824Z,0.80
2023-08-07T04:50:36.694Z,1.05
2023-08-07T04:53:03.614Z,0.73
2023-08-07T04:55:30.446Z,0.90
2023-08-07T04:57:57.455Z,1.15
2023-08-07T05:00:25.064Z,0.50
2023-08-07T05:02:52.485Z,0.60
2023-08-07T05:05:22.467Z,0.70
2023-08-07T05:07:49.841Z,0.63
2023-08-07T05:10:16.847Z,0.60
2023-08-07T05:12:43.761Z,0.73
2023-08-07T05:15:10.927Z,0.57
2023-08-07T05:17:37.762Z,0.60
2023-08-07T05:20:06.360Z,0.60
2023-08-07T05:22:33.176Z,0.50
2023-08-07T05:24:59.985Z,0.52
2023-08-07T05:27:26.763Z,0.68
2023-08-07T05:29:53.527Z,0.70
2023-08-07T05:32:20.518Z,0.73
2023-08-07T05:34:47.359Z,0.65
2023-08-07T05:37:14.184Z,0.63
2023-08-07T05:39:40.934Z,0.73
2023-08-07T05:42:09.138Z,0.82
2023-08-07T05:44:36.073Z,0.95
2023-08-07T05:47:02.956Z,0.80
2023-08-07T05:49:29.766Z,0.90
2023-08-07T05:51:56.888Z,0.73
2023-08-07T05:54:23.878Z,0.60
2023-08-07T05:56:50.653Z,0.70
2023-08-07T05:59:17.587Z,0.70
2023-08-07T06:01:44.357Z,0.60
2023-08-07T06:04:11.327Z,0.70
2023-08-07T06:06:40.407Z,0.60
2023-08-07T06:09:07.621Z,0.60
2023-08-07T06:11:34.691Z,0.70
2023-08-07T06:14:02.522Z,1.00
2023-08-07T06:16:29.563Z,1.10
2023-08-07T06:18:56.651Z,0.80
2023-08-07T06:21:23.492Z,0.70
2023-08-07T06:23:50.474Z,1.20
2023-08-07T06:26:17.374Z,0.98
2023-08-07T06:28:44.543Z,1.10
2023-08-07T06:31:13.269Z,1.10
2023-08-07T06:33:40.364Z,1.25
2023-08-07T06:36:07.903Z,1.10
2023-08-07T06:38:34.757Z,1.20
2023-08-07T06:41:01.718Z,1.10
2023-08-07T06:43:28.843Z,0.85
2023-08-07T06:45:57.522Z,0.73
2023-08-07T06:48:24.503Z,0.90
2023-08-07T06:50:52.219Z,0.70
2023-08-07T06:53:20.567Z,0.70
2023-08-07T06:55:47.893Z,0.90
2023-08-07T06:58:14.785Z,0.70
2023-08-07T07:00:41.905Z,0.75
2023-08-07T07:03:10.824Z,0.50
2023-08-07T07:05:37.799Z,0.60
2023-08-07T07:08:04.943Z,1.10
2023-08-07T07:10:32.189Z,0.98
2023-08-07T07:12:59.130Z,0.70
2023-08-07T07:15:25.936Z,1.10
2023-08-07T07:17:52.761Z,0.80
2023-08-07T07:20:19.907Z,0.70
2023-08-07T07:22:46.768Z,0.90
2023-08-07T07:25:13.610Z,0.63
2023-08-07T07:27:41.181Z,0.70
2023-08-07T07:30:08.910Z,0.80
2023-08-07T07:32:35.858Z,0.63
2023-08-07T07:35:02.924Z,0.80
2023-08-07T07:37:30.930Z,0.68
2023-08-07T07:39:57.689Z,0.90
2023-08-07T07:42:24.461Z,0.90
2023-08-07T07:44:51.304Z,1.02
2023-08-07T07:47:18.113Z,0.73
2023-08-07T07:49:50.347Z,0.80
2023-08-07T07:52:17.131Z,0.85
2023-08-07T07:54:44.025Z,0.70
2023-08-07T07:57:10.958Z,0.68
2023-08-07T07:59:38.235Z,0.80
2023-08-07T08:02:05.718Z,0.90
2023-08-07T08:04:32.767Z,0.77
2023-08-07T08:07:00.750Z,0.93
2023-08-07T08:09:27.822Z,0.90
2023-08-07T08:11:54.792Z,0.80
2023-08-07T08:14:21.721Z,0.73
2023-08-07T08:16:48.678Z,1.17
2023-08-07T08:19:17.433Z,1.25
2023-08-07T08:21:44.714Z,0.60
2023-08-07T08:24:11.605Z,0.52
2023-08-07T08:26:38.469Z,0.80
2023-08-07T08:29:08.966Z,0.73
2023-08-07T08:31:36.006Z,0.70
2023-08-07T08:34:02.839Z,0.60
2023-08-07T08:36:29.758Z,0.77
2023-08-07T08:38:56.519Z,0.80
2023-08-07T08:41:23.900Z,0.95
2023-08-07T08:43:54.076Z,0.75
2023-08-07T08:46:24.742Z,0.52
2023-08-07T08:48:57.052Z,0.50
2023-08-07T08:51:25.755Z,0.50
2023-08-07T08:53:57.619Z,0.50
2023-08-07T08:56:25.432Z,0.50
2023-08-07T08:58:52.917Z,0.68
2023-08-07T09:01:20.205Z,0.57
2023-08-07T09:03:47.515Z,0.52
2023-08-07T09:06:15.009Z,0.50
2023-08-07T09:08:45.180Z,0.57
2023-08-07T09:11:13.704Z,0.55
2023-08-07T09:13:42.032Z,0.60
2023-08-07T09:16:10.153Z,0.80
2023-08-07T09:18:37.103Z,0.60
2023-08-07T09:21:04.536Z,0.70
2023-08-07T09:23:32.017Z,0.80
2023-08-07T09:26:03.079Z,0.60
2023-08-07T09:28:33.595Z,0.50
2023-08-07T09:31:02.782Z,0.70
2023-08-07T09:33:31.487Z,0.63
2023-08-07T09:36:02.621Z,0.55
2023-08-07T09:38:31.174Z,0.70
2023-08-07T09:41:02.476Z,0.60
2023-08-07T09:43:30.060Z,0.80
2023-08-07T09:46:07.490Z,0.57
2023-08-07T09:48:41.482Z,0.47
2023-08-07T09:51:08.864Z,0.50
2023-08-07T09:53:35.855Z,0.60
2023-08-07T09:56:03.373Z,0.60
2023-08-07T09:58:30.781Z,0.40
2023-08-07T10:01:00.935Z,0.50
2023-08-07T10:03:28.242Z,0.43
2023-08-07T10:05:55.929Z,0.88
2023-08-07T10:08:23.344Z,0.45
2023-08-07T10:10:50.356Z,0.60
2023-08-07T10:13:19.042Z,0.40
2023-08-07T10:15:48.553Z,0.47
2023-08-07T10:18:15.424Z,0.40
2023-08-07T10:20:44.661Z,0.65
2023-08-07T10:23:12.615Z,0.60
2023-08-07T10:25:42.513Z,0.47
2023-08-07T10:28:13.387Z,0.57
2023-08-07T10:30:42.444Z,0.50
2023-08-07T10:33:11.555Z,0.50
2023-08-07T10:35:38.526Z,0.55
2023-08-07T10:38:09.785Z,0.70
2023-08-07T10:41:04.041Z,0.40
2023-08-07T10:43:31.577Z,0.40
2023-08-07T10:46:07.621Z,0.40
2023-08-07T10:48:45.333Z,0.35
2023-08-07T10:51:18.694Z,0.60
2023-08-07T10:53:48.645Z,0.40
2023-08-07T10:56:29.922Z,0.40
2023-08-07T10:58:56.748Z,0.40
2023-08-07T11:01:32.238Z,0.40
2023-08-07T11:04:01.333Z,0.40
2023-08-07T11:06:39.970Z,0.60
2023-08-07T11:09:09.662Z,0.40
2023-08-07T11:11:43.740Z,0.40
2023-08-07T11:14:18.301Z,0.50
2023-08-07T11:16:46.872Z,0.32
2023-08-07T11:19:16.368Z,0.43
2023-08-07T11:21:43.800Z,0.40
2023-08-07T11:24:14.496Z,0.45
2023-08-07T11:26:43.231Z,0.65
2023-08-07T11:29:10.514Z,0.50
2023-08-07T11:31:37.610Z,0.40
2023-08-07T11:34:04.868Z,0.40
2023-08-07T11:36:32.928Z,0.40
2023-08-07T11:38:59.837Z,0.43
2023-08-07T11:41:26.633Z,0.80
2023-08-07T11:43:53.394Z,0.30
2023-08-07T11:46:20.239Z,0.40
2023-08-07T11:48:47.094Z,0.30
2023-08-07T11:51:14.438Z,0.40
2023-08-07T11:53:43.064Z,0.30
2023-08-07T11:56:17.625Z,0.30
2023-08-07T11:58:49.038Z,0.38
2023-08-07T12:01:21.803Z,0.35
2023-08-07T12:04:10.736Z,0.47
2023-08-07T12:06:41.656Z,0.43
2023-08-07T12:09:14.072Z,0.45
2023-08-07T12:11:41.289Z,0.30
2023-08-07T12:14:08.100Z,0.50
2023-08-07T12:16:36.129Z,0.50
2023-08-07T12:19:03.270Z,0.40
2023-08-07T12:21:30.156Z,0.40
2023-08-07T12:23:57.828Z,0.30
2023-08-07T12:26:24.727Z,0.20
2023-08-07T12:28:52.138Z,0.32
2023-08-07T12:31:19.541Z,0.30
2023-08-07T12:33:46.707Z,0.30
2023-08-07T12:38:45.386Z,0.43
2023-08-07T12:43:42.212Z,0.32
2023-08-07T12:48:38.695Z,0.35
2023-08-07T12:51:05.469Z,0.40
2023-08-07T12:53:32.937Z,0.50
2023-08-07T12:55:59.821Z,0.32
2023-08-07T12:58:28.772Z,0.43
2023-08-07T13:00:55.735Z,0.40
2023-08-07T13:03:22.621Z,0.38
2023-08-07T13:05:49.689Z,0.40
2023-08-07T13:08:16.542Z,0.40
2023-08-07T13:10:43.357Z,0.35
2023-08-07T13:13:10.206Z,0.40
2023-08-07T13:15:36.985Z,0.50
2023-08-07T13:18:04.428Z,0.40
2023-08-07T13:20:35.040Z,0.47
2023-08-07T13:23:03.016Z,0.50
2023-08-07T13:25:29.976Z,0.40
2023-08-07T13:27:56.795Z,0.30
2023-08-07T13:30:23.617Z,0.40
2023-08-07T13:32:50.925Z,0.38
2023-08-07T13:35:17.950Z,0.40
2023-08-07T13:37:44.776Z,0.35
2023-08-07T13:40:12.772Z,0.40
2023-08-07T13:42:40.154Z,0.30
2023-08-07T13:45:08.636Z,0.40
2023-08-07T13:47:36.891Z,0.30
2023-08-07T13:50:04.555Z,0.40
2023-08-07T13:52:31.937Z,0.40
2023-08-07T13:54:58.941Z,0.40
2023-08-07T13:57:25.810Z,0.40
2023-08-07T13:59:52.654Z,0.50
2023-08-07T14:02:19.512Z,0.60
2023-08-07T14:04:46.674Z,0.40
2023-08-07T14:07:13.891Z,0.40
2023-08-07T14:09:40.931Z,0.47
2023-08-07T14:12:08.305Z,0.50
2023-08-07T14:14:35.074Z,0.38
2023-08-07T14:17:03.324Z,0.30
2023-08-07T14:19:30.266Z,0.50
2023-08-07T14:21:57.144Z,0.40
2023-08-07T14:24:24.582Z,0.60
2023-08-07T14:26:51.459Z,0.50
2023-08-07T14:29:18.339Z,0.40
2023-08-07T14:31:45.156Z,0.40
2023-08-07T14:34:11.993Z,0.40
2023-08-07T14:36:38.827Z,0.40
2023-08-07T14:39:05.694Z,0.50
2023-08-07T14:41:32.584Z,0.30
2023-08-07T14:43:59.411Z,0.50
2023-08-07T14:46:26.270Z,0.50
2023-08-07T14:48:53.158Z,0.50
2023-08-07T14:51:19.983Z,0.52
2023-08-07T14:53:46.843Z,0.40
2023-08-07T14:56:13.722Z,0.40
2023-08-07T14:58:40.733Z,0.50
2023-08-07T15:01:08.053Z,0.40
2023-08-07T15:03:34.877Z,0.32
2023-08-07T15:06:01.777Z,0.40
2023-08-07T15:08:28.552Z,0.40
2023-08-07T15:10:55.401Z,0.40
2023-08-07T15:13:22.381Z,0.52
2023-08-07T15:15:49.225Z,0.57
2023-08-07T15:18:16.038Z,0.50
2023-08-07T15:20:42.936Z,0.40
2023-08-07T15:23:09.800Z,0.40
2023-08-07T15:25:38.736Z,0.40
2023-08-07T15:28:06.689Z,0.40
2023-08-07T15:30:34.059Z,0.40
2023-08-07T15:33:00.902Z,0.35
2023-08-07T15:35:31.191Z,0.40
2023-08-07T15:37:59.216Z,0.60
2023-08-07T15:40:28.800Z,0.52
2023-08-07T15:42:55.672Z,0.30
2023-08-07T15:45:22.584Z,0.47
2023-08-07T15:47:49.438Z,0.35
2023-08-07T15:50:16.515Z,0.40
2023-08-07T15:52:43.553Z,0.32
2023-08-07T15:55:10.406Z,0.50
2023-08-07T15:57:37.275Z,0.30
2023-08-07T16:00:06.896Z,0.30
2023-08-07T16:02:33.756Z,0.30
2023-08-07T16:05:00.688Z,0.30
2023-08-07T16:07:29.321Z,0.50
2023-08-07T16:09:56.918Z,0.57
2023-08-07T16:12:23.919Z,0.40
2023-08-07T16:14:50.801Z,0.40
2023-08-07T16:17:17.626Z,0.35
2023-08-07T16:19:44.520Z,0.43
2023-08-07T16:22:11.665Z,0.50
2023-08-07T16:24:38.589Z,0.60
2023-08-07T16:27:06.259Z,0.50
2023-08-07T16:29:33.173Z,0.50
2023-08-07T16:32:07.646Z,0.40
2023-08-07T16:34:34.806Z,0.47
2023-08-07T16:37:01.823Z,0.50
2023-08-07T16:39:29.094Z,0.50
2023-08-07T16:41:55.976Z,0.50
2023-08-07T16:44:22.963Z,0.60
2023-08-07T16:46:49.840Z,2.70
2023-08-07T16:49:17.077Z,0.52
2023-08-07T16:51:44.891Z,0.60
2023-08-07T16:54:11.860Z,0.50
2023-08-07T16:56:38.675Z,0.50
2023-08-07T16:59:05.531Z,0.80
2023-08-07T17:01:32.401Z,0.60
2023-08-07T17:03:59.245Z,0.50
2023-08-07T17:06:26.044Z,0.50
2023-08-07T17:08:53.485Z,0.60
2023-08-07T17:11:20.926Z,0.63
2023-08-07T17:13:47.946Z,0.68
2023-08-07T17:16:14.779Z,0.70
2023-08-07T17:18:41.608Z,0.68
2023-08-07T17:21:08.499Z,0.60
2023-08-07T17:23:35.297Z,0.70
2023-08-07T17:26:02.668Z,0.88
2023-08-07T17:28:32.872Z,0.80
2023-08-07T17:31:01.032Z,0.80
2023-08-07T17:33:28.260Z,0.73
2023-08-07T17:35:55.261Z,0.70
2023-08-07T17:38:22.147Z,0.75
2023-08-07T17:40:50.239Z,0.60
2023-08-07T17:43:17.268Z,0.90
2023-08-07T17:45:44.237Z,0.82
2023-08-07T17:48:11.218Z,0.80
2023-08-07T17:50:38.907Z,0.85
2023-08-07T17:53:06.194Z,0.80
2023-08-07T17:55:33.298Z,0.98
2023-08-07T17:58:00.183Z,0.90
2023-08-07T18:00:27.228Z,0.90
2023-08-07T18:02:55.311Z,0.90
2023-08-07T18:05:23.582Z,0.90
2023-08-07T18:07:51.813Z,1.02
2023-08-07T18:10:18.654Z,0.80
2023-08-07T18:12:45.483Z,1.20
2023-08-07T18:15:12.268Z,0.90
2023-08-07T18:17:39.200Z,1.15
2023-08-07T18:20:07.485Z,1.08
2023-08-07T18:22:34.830Z,1.10
2023-08-07T18:25:01.692Z,1.20
2023-08-07T18:27:28.567Z,1.42
2023-08-07T18:29:55.435Z,1.13
2023-08-07T18:32:22.423Z,1.00
2023-08-07T18:34:49.460Z,1.20
2023-08-07T18:37:16.336Z,1.35
2023-08-07T18:39:43.235Z,1.40
2023-08-07T18:42:10.061Z,1.48
2023-08-07T18:44:36.816Z,1.00
2023-08-07T18:47:03.706Z,1.10
2023-08-07T18:49:30.776Z,1.10
2023-08-07T18:51:57.572Z,0.98
2023-08-07T18:54:25.479Z,1.00
2023-08-07T18:56:53.760Z,1.00
2023-08-07T18:59:20.947Z,1.13
2023-08-07T19:01:47.826Z,1.55
2023-08-07T19:04:14.888Z,1.30
2023-08-07T19:06:43.685Z,1.50
2023-08-07T19:09:11.085Z,1.20
2023-08-07T19:11:37.877Z,0.88
2023-08-07T19:14:05.154Z,1.20
2023-08-07T19:16:32.562Z,0.80
2023-08-07T19:18:59.416Z,1.00
2023-08-07T19:21:26.644Z,1.00
2023-08-07T19:23:53.518Z,0.93
2023-08-07T19:26:20.302Z,0.75
2023-08-07T19:28:47.179Z,0.70
2023-08-07T19:31:13.986Z,0.70
2023-08-07T19:33:40.912Z,0.75
2023-08-07T19:36:07.726Z,0.60
2023-08-07T19:38:34.547Z,0.70
2023-08-07T19:41:01.453Z,0.60
2023-08-07T19:43:29.532Z,0.73
2023-08-07T19:45:57.709Z,0.60
2023-08-07T19:48:25.067Z,0.70
2023-08-07T19:50:58.187Z,0.70
2023-08-07T19:53:25.073Z,0.80
2023-08-07T19:55:51.983Z,0.77
2023-08-07T19:58:20.661Z,0.80
2023-08-07T20:00:48.029Z,0.60
2023-08-07T20:03:16.267Z,0.55
2023-08-07T20:05:43.153Z,0.60
2023-08-07T20:08:10.306Z,0.90
2023-08-07T20:10:37.312Z,0.60
2023-08-07T20:13:04.344Z,0.75
2023-08-07T20:15:31.305Z,0.57
2023-08-07T20:17:58.438Z,0.60
2023-08-07T20:20:25.503Z,0.70
2023-08-07T20:22:52.338Z,0.60
2023-08-07T20:25:19.174Z,0.60
2023-08-07T20:27:45.974Z,0.68
2023-08-07T20:30:12.913Z,0.60
2023-08-07T20:32:39.880Z,1.02
2023-08-07T20:35:07.035Z,0.93
2023-08-07T20:37:33.981Z,1.00
2023-08-07T20:40:00.940Z,1.00
2023-08-07T20:42:27.874Z,1.10
2023-08-07T20:44:54.790Z,0.90
2023-08-07T20:47:21.643Z,1.20
2023-08-07T20:49:48.482Z,1.00
2023-08-07T20:52:15.313Z,1.00
2023-08-07T20:54:42.208Z,0.70
2023-08-07T20:57:09.044Z,0.95
2023-08-07T20:59:35.890Z,0.90
2023-08-07T21:02:02.826Z,0.95
2023-08-07T21:04:29.785Z,0.70
2023-08-07T21:06:56.642Z,0.70
2023-08-07T21:09:23.471Z,0.90
2023-08-07T21:11:50.627Z,0.80
2023-08-07T21:14:17.449Z,0.80
2023-08-07T21:16:44.846Z,0.70
2023-08-07T21:19:13.050Z,0.70
2023-08-07T21:21:40.078Z,0.57
2023-08-07T21:24:13.091Z,0.70
2023-08-07T21:26:41.575Z,0.60
2023-08-07T21:29:08.857Z,0.40
2023-08-07T21:31:36.710Z,0.50
2023-08-07T21:34:03.797Z,0.60
2023-08-07T21:36:30.861Z,1.05
2023-08-07T21:38:58.814Z,0.50
2023-08-07T21:41:26.931Z,0.60
2023-08-07T21:43:54.121Z,0.50
2023-08-07T21:46:22.352Z,0.30
2023-08-07T21:48:50.934Z,0.40
2023-08-07T21:51:17.801Z,0.40
2023-08-07T21:53:44.565Z,0.40
2023-08-07T21:56:11.353Z,0.40
2023-08-07T21:58:38.154Z,0.40
2023-08-07T22:01:05.123Z,0.38
2023-08-07T22:03:34.956Z,0.40
2023-08-07T22:06:02.137Z,0.38
2023-08-07T22:08:29.917Z,0.40
2023-08-07T22:10:58.437Z,0.40
2023-08-07T22:13:25.304Z,0.30
2023-08-07T22:15:54.616Z,0.30
2023-08-07T22:18:21.679Z,0.50
2023-08-07T22:20:48.521Z,0.40
2023-08-07T22:23:19.038Z,0.40
2023-08-07T22:25:45.800Z,0.40
2023-08-07T22:28:12.642Z,0.47
2023-08-07T22:30:39.494Z,0.60
2023-08-07T22:33:06.617Z,0.50
2023-08-07T22:35:33.493Z,0.70
2023-08-07T22:38:00.286Z,0.60
2023-08-07T22:40:27.118Z,0.50
2023-08-07T22:42:54.012Z,0.50
2023-08-07T22:45:21.201Z,0.50
2023-08-07T22:47:48.027Z,0.45
2023-08-07T22:50:14.845Z,0.50
2023-08-07T22:52:41.800Z,0.60
2023-08-07T22:55:09.012Z,0.38
2023-08-07T22:57:36.003Z,0.40
2023-08-07T23:00:05.479Z,0.47
2023-08-07T23:02:32.416Z,0.50
2023-08-07T23:04:59.292Z,0.95
2023-08-07T23:07:26.236Z,0.55
2023-08-07T23:09:53.060Z,0.75
2023-08-07T23:12:19.931Z,0.60
2023-08-07T23:14:46.778Z,0.40
2023-08-07T23:17:18.509Z,0.50
2023-08-07T23:19:46.460Z,0.40
2023-08-07T23:22:13.346Z,0.35
2023-08-07T23:24:40.259Z,0.60
2023-08-07T23:27:08.044Z,0.45
2023-08-07T23:29:35.890Z,0.47
2023-08-07T23:32:02.972Z,0.47
2023-08-07T23:34:29.761Z,0.50
2023-08-07T23:36:56.601Z,0.47
2023-08-07T23:39:23.368Z,0.40
2023-08-07T23:41:50.165Z,0.50
2023-08-07T23:44:16.997Z,0.50
2023-08-07T23:46:43.956Z,0.47
2023-08-07T23:49:10.800Z,0.65
2023-08-07T23:51:37.638Z,0.52
2023-08-07T23:54:04.584Z,0.47
2023-08-07T23:56:31.446Z,0.50
2023-08-07T23:58:58.234Z,0.60
